createdAt,value
2022-11-14T00:00:49.224Z,4.09
2022-11-14T00:03:35.018Z,4.07
2022-11-14T00:06:20.912Z,4.08
2022-11-14T00:09:06.800Z,4.21
2022-11-14T00:11:53.220Z,4.31
2022-11-14T00:14:39.054Z,4.04
2022-11-14T00:17:25.024Z,4.05
2022-11-14T00:20:12.448Z,3.92
2022-11-14T00:22:58.739Z,3.79
2022-11-14T00:25:45.343Z,3.87
2022-11-14T00:28:31.364Z,3.91
2022-11-14T00:31:17.257Z,4.01
2022-11-14T00:34:03.332Z,3.68
2022-11-14T00:36:49.299Z,3.75
2022-11-14T00:39:35.301Z,3.88
2022-11-14T00:42:21.201Z,3.99
2022-11-14T00:45:07.149Z,3.81
2022-11-14T00:47:52.962Z,3.54
2022-11-14T00:50:38.642Z,3.32
2022-11-14T00:53:24.435Z,3.30
2022-11-14T00:56:10.846Z,3.28
2022-11-14T00:58:56.969Z,3.21
2022-11-14T01:01:42.896Z,3.20
2022-11-14T01:04:28.756Z,3.33
2022-11-14T01:07:14.441Z,3.21
2022-11-14T01:10:00.161Z,3.19
2022-11-14T01:12:46.000Z,3.15
2022-11-14T01:15:31.950Z,3.30
2022-11-14T01:18:21.772Z,3.09
2022-11-14T01:21:10.834Z,3.14
2022-11-14T01:23:56.931Z,3.20
2022-11-14T01:26:42.687Z,3.16
2022-11-14T01:29:28.673Z,3.13
2022-11-14T01:32:14.842Z,3.22
2022-11-14T01:35:00.871Z,3.43
2022-11-14T01:37:46.645Z,3.35
2022-11-14T01:40:32.848Z,3.51
2022-11-14T01:43:18.943Z,3.54
2022-11-14T01:46:29.225Z,3.54
2022-11-14T01:49:20.026Z,3.62
2022-11-14T01:52:18.306Z,3.47
2022-11-14T01:55:09.121Z,3.57
2022-11-14T01:57:55.783Z,3.68
2022-11-14T02:00:42.102Z,3.55
2022-11-14T02:03:36.459Z,3.68
2022-11-14T02:06:24.503Z,3.64
2022-11-14T02:09:10.476Z,3.63
2022-11-14T02:11:59.234Z,3.78
2022-11-14T02:14:47.400Z,3.73
2022-11-14T02:17:33.450Z,3.78
2022-11-14T02:20:24.514Z,3.75
2022-11-14T02:23:12.077Z,3.68
2022-11-14T02:25:58.613Z,3.77
2022-11-14T02:28:44.369Z,3.71
2022-11-14T02:31:30.383Z,3.76
2022-11-14T02:34:19.990Z,3.71
2022-11-14T02:37:06.772Z,3.63
2022-11-14T02:39:52.882Z,3.41
2022-11-14T02:42:38.999Z,3.44
2022-11-14T02:45:25.069Z,3.46
2022-11-14T02:48:11.665Z,3.47
2022-11-14T02:50:58.163Z,3.45
2022-11-14T02:53:44.176Z,3.51
2022-11-14T02:56:30.392Z,3.59
2022-11-14T02:59:16.408Z,3.50
2022-11-14T03:02:02.658Z,3.47
2022-11-14T03:04:48.724Z,3.48
2022-11-14T03:07:34.485Z,3.48
2022-11-14T03:10:21.616Z,3.29
2022-11-14T03:13:07.789Z,3.37
2022-11-14T03:15:53.654Z,3.39
2022-11-14T03:18:39.469Z,3.20
2022-11-14T03:21:25.310Z,3.10
2022-11-14T03:24:11.040Z,3.31
2022-11-14T03:26:57.045Z,3.11
2022-11-14T03:29:42.853Z,2.93
2022-11-14T03:32:28.918Z,2.60
2022-11-14T03:35:14.532Z,2.71
2022-11-14T03:38:00.371Z,2.59
2022-11-14T03:40:46.223Z,2.79
2022-11-14T03:43:35.278Z,3.02
2022-11-14T03:46:21.294Z,3.04
2022-11-14T03:49:07.286Z,2.95
2022-11-14T03:51:52.972Z,3.14
2022-11-14T03:54:39.094Z,3.06
2022-11-14T03:57:25.338Z,3.02
2022-11-14T04:00:11.655Z,3.07
2022-11-14T04:02:57.778Z,2.93
2022-11-14T04:05:45.401Z,3.07
2022-11-14T04:08:31.795Z,3.06
2022-11-14T04:11:18.677Z,3.02
2022-11-14T04:14:04.823Z,3.13
2022-11-14T04:16:50.477Z,3.16
2022-11-14T04:19:38.252Z,3.11
2022-11-14T04:22:24.068Z,3.14
2022-11-14T04:25:10.274Z,3.10
2022-11-14T04:27:56.326Z,3.08
2022-11-14T04:30:42.552Z,2.97
2022-11-14T04:33:28.263Z,3.09
2022-11-14T04:36:14.040Z,3.16
2022-11-14T04:38:59.782Z,3.18
2022-11-14T04:41:46.211Z,3.11
2022-11-14T04:44:32.263Z,3.18
2022-11-14T04:47:18.067Z,3.09
2022-11-14T04:50:04.402Z,3.12
2022-11-14T04:52:53.892Z,3.09
2022-11-14T04:55:39.656Z,2.51
2022-11-14T04:58:25.697Z,2.33
2022-11-14T05:01:13.910Z,2.70
2022-11-14T05:03:59.978Z,2.83
2022-11-14T05:06:46.016Z,2.90
2022-11-14T05:09:32.356Z,2.97
2022-11-14T05:12:18.145Z,2.81
2022-11-14T05:15:04.197Z,2.72
2022-11-14T05:17:50.655Z,2.29
2022-11-14T05:20:36.685Z,2.52
2022-11-14T05:23:24.010Z,2.71
2022-11-14T05:26:12.051Z,2.68
2022-11-14T05:28:58.100Z,2.36
2022-11-14T05:31:44.259Z,2.32
2022-11-14T05:34:30.015Z,2.60
2022-11-14T05:37:15.662Z,2.66
2022-11-14T05:40:01.602Z,2.71
2022-11-14T05:42:47.190Z,2.29
2022-11-14T05:45:33.130Z,2.33
2022-11-14T05:48:19.187Z,2.47
2022-11-14T05:51:06.127Z,2.59
2022-11-14T05:53:52.174Z,2.65
2022-11-14T05:56:38.272Z,2.65
2022-11-14T05:59:24.420Z,2.66
2022-11-14T06:02:10.525Z,2.30
2022-11-14T06:04:56.718Z,2.41
2022-11-14T06:07:42.508Z,2.33
2022-11-14T06:10:28.601Z,2.61
2022-11-14T06:13:15.732Z,2.62
2022-11-14T06:16:07.011Z,2.78
2022-11-14T06:18:53.510Z,2.87
2022-11-14T06:21:39.771Z,2.81
2022-11-14T06:24:25.764Z,2.74
2022-11-14T06:27:11.768Z,2.95
2022-11-14T06:29:57.748Z,2.54
2022-11-14T06:32:43.753Z,2.73
2022-11-14T06:35:29.602Z,2.77
2022-11-14T06:38:15.421Z,2.91
2022-11-14T06:41:04.909Z,3.00
2022-11-14T06:43:52.981Z,2.92
2022-11-14T06:46:39.106Z,2.66
2022-11-14T06:49:25.153Z,2.72
2022-11-14T06:52:11.256Z,2.76
2022-11-14T06:54:57.347Z,3.02
2022-11-14T06:57:43.144Z,3.10
2022-11-14T07:00:29.047Z,3.19
2022-11-14T07:03:14.958Z,2.96
2022-11-14T07:06:01.822Z,3.12
2022-11-14T07:08:48.044Z,3.25
2022-11-14T07:11:35.299Z,3.19
2022-11-14T07:14:21.289Z,3.47
2022-11-14T07:17:07.225Z,3.59
2022-11-14T07:19:53.489Z,3.65
2022-11-14T07:22:39.537Z,3.72
2022-11-14T07:25:26.234Z,3.78
2022-11-14T07:28:12.342Z,3.86
2022-11-14T07:30:58.098Z,3.50
2022-11-14T07:33:45.226Z,3.63
2022-11-14T07:36:30.950Z,3.88
2022-11-14T07:39:17.629Z,3.88
2022-11-14T07:42:03.870Z,3.67
2022-11-14T07:44:49.966Z,3.95
2022-11-14T07:47:35.951Z,3.95
2022-11-14T07:50:22.948Z,4.02
2022-11-14T07:53:09.397Z,4.14
2022-11-14T07:55:56.107Z,3.74
2022-11-14T07:58:42.422Z,3.97
2022-11-14T08:01:28.638Z,3.79
2022-11-14T08:04:15.125Z,3.80
2022-11-14T08:07:00.891Z,4.00
2022-11-14T08:09:47.308Z,4.25
2022-11-14T08:12:33.534Z,4.45
2022-11-14T08:15:19.284Z,4.57
2022-11-14T08:18:05.619Z,4.53
2022-11-14T08:20:51.556Z,4.55
2022-11-14T08:23:37.497Z,4.55
2022-11-14T08:26:23.543Z,4.69
2022-11-14T08:29:19.678Z,5.03
2022-11-14T08:32:05.662Z,5.24
2022-11-14T08:34:54.572Z,4.84
2022-11-14T08:37:40.780Z,5.39
2022-11-14T08:40:27.142Z,5.56
2022-11-14T08:43:13.363Z,5.77
2022-11-14T08:46:01.878Z,4.79
2022-11-14T08:48:48.492Z,4.68
2022-11-14T08:51:36.444Z,4.94
2022-11-14T08:54:22.303Z,4.96
2022-11-14T08:57:08.753Z,5.04
2022-11-14T08:59:55.830Z,5.09
2022-11-14T09:02:41.967Z,5.23
2022-11-14T09:05:28.249Z,5.25
2022-11-14T09:08:14.183Z,5.46
2022-11-14T09:11:05.080Z,5.69
2022-11-14T09:13:52.569Z,5.65
2022-11-14T09:16:41.721Z,5.41
2022-11-14T09:19:30.160Z,5.73
2022-11-14T09:22:16.465Z,5.82
2022-11-14T09:25:02.224Z,5.99
2022-11-14T09:27:55.180Z,5.73
2022-11-14T09:30:42.100Z,5.91
2022-11-14T09:33:28.758Z,6.07
2022-11-14T09:36:16.040Z,5.89
2022-11-14T09:39:02.082Z,5.77
2022-11-14T09:42:00.207Z,6.07
2022-11-14T09:44:55.426Z,6.20
2022-11-14T09:47:47.061Z,6.51
2022-11-14T09:50:34.663Z,6.82
2022-11-14T09:53:30.010Z,6.51
2022-11-14T09:56:23.808Z,6.12
2022-11-14T09:59:12.631Z,6.35
2022-11-14T10:02:05.603Z,6.56
2022-11-14T10:05:09.491Z,6.77
2022-11-14T10:08:10.448Z,7.03
2022-11-14T10:10:58.704Z,7.32
2022-11-14T10:14:12.707Z,7.29
2022-11-14T10:17:10.696Z,7.41
2022-11-14T10:20:23.644Z,7.43
2022-11-14T10:23:28.587Z,7.50
2022-11-14T10:26:24.662Z,7.60
2022-11-14T10:29:30.506Z,7.52
2022-11-14T10:32:33.144Z,7.55
2022-11-14T10:35:36.098Z,7.40
2022-11-14T10:38:28.415Z,7.67
2022-11-14T10:41:34.779Z,7.84
2022-11-14T10:44:24.712Z,7.98
2022-11-14T10:47:16.533Z,8.00
2022-11-14T10:50:21.947Z,8.16
2022-11-14T10:53:17.017Z,8.22
2022-11-14T10:56:04.775Z,8.33
2022-11-14T10:58:51.131Z,8.35
2022-11-14T11:01:46.560Z,8.17
2022-11-14T11:04:34.430Z,8.38
2022-11-14T11:07:43.887Z,8.56
2022-11-14T11:10:49.970Z,8.51
2022-11-14T11:13:40.255Z,8.68
2022-11-14T11:16:28.419Z,8.82
2022-11-14T11:19:23.368Z,8.90
2022-11-14T11:22:29.887Z,8.93
2022-11-14T11:25:27.011Z,8.94
2022-11-14T11:28:24.066Z,9.06
2022-11-14T11:31:11.488Z,9.12
2022-11-14T11:34:03.229Z,9.26
2022-11-14T11:36:54.209Z,9.22
2022-11-14T11:39:45.441Z,9.32
2022-11-14T11:43:31.825Z,9.46
2022-11-14T11:45:50.162Z,9.57
2022-11-14T11:48:40.276Z,9.60
2022-11-14T11:51:27.124Z,9.66
2022-11-14T11:54:16.903Z,9.73
2022-11-14T11:57:10.367Z,9.86
2022-11-14T12:00:04.760Z,9.93
2022-11-14T12:02:53.031Z,9.96
2022-11-14T12:05:42.451Z,9.95
2022-11-14T12:08:38.035Z,10.06
2022-11-14T12:11:26.421Z,10.09
2022-11-14T12:14:24.223Z,10.18
2022-11-14T12:17:22.022Z,10.22
2022-11-14T12:20:27.847Z,10.28
2022-11-14T12:23:28.989Z,10.27
2022-11-14T12:27:02.467Z,10.34
2022-11-14T12:30:08.787Z,10.29
2022-11-14T12:33:02.205Z,10.41
2022-11-14T12:35:55.855Z,10.46
2022-11-14T12:38:54.722Z,10.46
2022-11-14T12:41:40.948Z,10.48
2022-11-14T12:44:26.985Z,10.51
2022-11-14T12:47:21.171Z,10.57
2022-11-14T12:50:41.763Z,10.60
2022-11-14T12:53:38.004Z,10.69
2022-11-14T12:56:35.707Z,10.70
2022-11-14T12:59:35.949Z,10.71
2022-11-14T13:02:58.311Z,10.63
2022-11-14T13:05:59.791Z,10.73
2022-11-14T13:09:17.568Z,10.71
2022-11-14T13:12:55.643Z,10.73
2022-11-14T13:16:16.394Z,10.64
2022-11-14T13:19:30.164Z,10.75
2022-11-14T13:22:33.797Z,10.75
2022-11-14T13:25:22.295Z,10.73
2022-11-14T13:28:39.219Z,10.67
2022-11-14T13:31:44.424Z,10.76
2022-11-14T13:34:42.351Z,10.78
2022-11-14T13:38:00.874Z,10.81
2022-11-14T13:41:24.397Z,10.76
2022-11-14T13:44:33.384Z,10.73
2022-11-14T13:47:49.032Z,10.66
2022-11-14T13:50:40.636Z,10.70
2022-11-14T13:53:29.116Z,10.69
2022-11-14T13:56:40.190Z,10.64
2022-11-14T13:59:59.190Z,10.70
2022-11-14T14:02:51.030Z,11.18
2022-11-14T14:05:59.836Z,11.04
2022-11-14T14:09:01.090Z,10.77
2022-11-14T14:12:06.148Z,10.70
2022-11-14T14:15:30.778Z,10.48
2022-11-14T14:18:37.929Z,10.49
2022-11-14T14:21:48.504Z,10.34
2022-11-14T14:24:49.515Z,10.33
2022-11-14T14:27:56.158Z,10.28
2022-11-14T14:31:10.437Z,10.23
2022-11-14T14:33:56.890Z,10.18
2022-11-14T14:36:53.167Z,10.12
2022-11-14T14:39:39.569Z,10.06
2022-11-14T14:42:29.612Z,10.02
2022-11-14T14:45:21.615Z,9.99
2022-11-14T14:48:14.603Z,9.93
2022-11-14T14:51:03.136Z,9.88
2022-11-14T14:53:53.518Z,9.83
2022-11-14T14:56:39.240Z,9.80
2022-11-14T14:59:25.990Z,9.74
2022-11-14T15:02:15.142Z,9.66
2022-11-14T15:05:01.628Z,9.57
2022-11-14T15:07:49.552Z,9.55
2022-11-14T15:10:35.878Z,9.39
2022-11-14T15:13:24.220Z,9.41
2022-11-14T15:16:10.869Z,9.31
2022-11-14T15:18:58.229Z,9.11
2022-11-14T15:21:44.121Z,9.08
2022-11-14T15:24:30.632Z,9.07
2022-11-14T15:27:18.363Z,9.00
2022-11-14T15:30:07.193Z,8.83
2022-11-14T15:32:57.652Z,8.62
2022-11-14T15:35:43.620Z,8.51
2022-11-14T15:38:54.289Z,8.32
2022-11-14T15:41:35.914Z,8.36
2022-11-14T15:44:32.988Z,8.25
2022-11-14T15:47:23.671Z,8.25
2022-11-14T15:50:13.393Z,8.27
2022-11-14T15:53:01.627Z,8.25
2022-11-14T15:55:47.331Z,8.17
2022-11-14T15:58:33.857Z,8.27
2022-11-14T16:01:24.013Z,8.25
2022-11-14T16:04:21.208Z,8.17
2022-11-14T16:07:07.276Z,7.92
2022-11-14T16:09:54.403Z,7.80
2022-11-14T16:12:40.657Z,7.69
2022-11-14T16:15:26.760Z,7.49
2022-11-14T16:18:13.047Z,7.48
2022-11-14T16:20:59.480Z,7.44
2022-11-14T16:23:46.145Z,7.36
2022-11-14T16:26:33.094Z,7.13
2022-11-14T16:29:19.416Z,7.12
2022-11-14T16:32:05.458Z,7.01
2022-11-14T16:34:51.524Z,7.02
2022-11-14T16:37:37.325Z,7.08
2022-11-14T16:40:27.559Z,7.10
2022-11-14T16:43:14.502Z,7.08
2022-11-14T16:46:05.042Z,7.11
2022-11-14T16:48:51.265Z,7.11
2022-11-14T16:51:48.245Z,6.93
2022-11-14T16:54:35.387Z,6.69
2022-11-14T16:57:21.973Z,6.67
2022-11-14T17:00:10.947Z,6.61
2022-11-14T17:02:57.336Z,6.51
2022-11-14T17:05:44.839Z,6.35
2022-11-14T17:08:31.167Z,6.28
2022-11-14T17:11:17.411Z,6.15
2022-11-14T17:14:03.407Z,6.12
2022-11-14T17:16:49.517Z,5.91
2022-11-14T17:19:35.362Z,5.91
2022-11-14T17:22:21.816Z,5.81
2022-11-14T17:25:08.299Z,5.88
2022-11-14T17:27:54.035Z,5.85
2022-11-14T17:30:43.508Z,5.87
2022-11-14T17:33:30.071Z,5.92
2022-11-14T17:36:16.361Z,5.90
2022-11-14T17:39:02.731Z,5.86
2022-11-14T17:41:49.001Z,5.89
2022-11-14T17:44:34.961Z,5.91
2022-11-14T17:47:21.085Z,5.76
2022-11-14T17:50:07.535Z,5.47
2022-11-14T17:52:53.661Z,5.23
2022-11-14T17:55:40.104Z,5.24
2022-11-14T17:58:28.166Z,5.41
2022-11-14T18:01:16.719Z,5.57
2022-11-14T18:04:06.192Z,5.54
2022-11-14T18:06:53.297Z,5.45
2022-11-14T18:09:39.940Z,5.42
2022-11-14T18:12:26.064Z,5.28
2022-11-14T18:15:12.481Z,5.05
2022-11-14T18:17:58.650Z,4.92
2022-11-14T18:20:44.611Z,4.86
2022-11-14T18:23:31.018Z,4.84
2022-11-14T18:26:18.481Z,4.77
2022-11-14T18:29:04.799Z,4.88
2022-11-14T18:31:51.121Z,4.68
2022-11-14T18:34:37.351Z,4.87
2022-11-14T18:37:23.689Z,4.84
2022-11-14T18:40:16.612Z,4.97
2022-11-14T18:43:04.058Z,4.82
2022-11-14T18:45:51.118Z,4.96
2022-11-14T18:48:38.265Z,4.97
2022-11-14T18:51:29.215Z,4.97
2022-11-14T18:54:18.970Z,4.93
2022-11-14T18:57:05.032Z,5.13
2022-11-14T18:59:51.833Z,5.19
2022-11-14T19:02:38.434Z,5.24
2022-11-14T19:05:24.950Z,5.13
2022-11-14T19:08:11.351Z,5.11
2022-11-14T19:11:02.035Z,5.17
2022-11-14T19:13:48.499Z,5.21
2022-11-14T19:16:35.733Z,5.17
2022-11-14T19:19:23.218Z,5.25
2022-11-14T19:22:09.556Z,5.17
2022-11-14T19:24:57.835Z,4.77
2022-11-14T19:27:44.145Z,4.75
2022-11-14T19:30:31.534Z,4.69
2022-11-14T19:33:17.651Z,4.88
2022-11-14T19:36:10.592Z,4.91
2022-11-14T19:38:58.200Z,4.97
2022-11-14T19:41:44.088Z,4.99
2022-11-14T19:44:30.663Z,4.92
2022-11-14T19:47:17.100Z,4.78
2022-11-14T19:50:03.636Z,4.62
2022-11-14T19:52:50.951Z,4.82
2022-11-14T19:55:37.027Z,4.78
2022-11-14T19:58:23.613Z,4.71
2022-11-14T20:01:20.193Z,4.77
2022-11-14T20:04:07.449Z,4.99
2022-11-14T20:06:53.659Z,5.03
2022-11-14T20:09:41.096Z,5.04
2022-11-14T20:12:27.504Z,4.81
2022-11-14T20:15:13.868Z,4.92
2022-11-14T20:17:59.837Z,4.94
2022-11-14T20:20:45.692Z,4.78
2022-11-14T20:23:33.948Z,4.67
2022-11-14T20:26:21.243Z,4.82
2022-11-14T20:29:07.946Z,4.79
2022-11-14T20:31:54.019Z,4.85
2022-11-14T20:34:39.994Z,4.80
2022-11-14T20:37:25.904Z,4.93
2022-11-14T20:40:13.548Z,4.81
2022-11-14T20:43:00.456Z,4.92
2022-11-14T20:45:59.800Z,5.03
2022-11-14T20:48:46.786Z,5.05
2022-11-14T20:51:36.505Z,4.95
2022-11-14T20:54:25.211Z,4.74
2022-11-14T20:57:11.025Z,4.82
2022-11-14T20:59:56.846Z,4.65
2022-11-14T21:02:42.569Z,4.67
2022-11-14T21:05:28.675Z,4.62
2022-11-14T21:08:16.844Z,4.84
2022-11-14T21:11:07.931Z,4.83
2022-11-14T21:13:56.814Z,4.93
2022-11-14T21:16:43.293Z,4.91
2022-11-14T21:19:29.434Z,5.03
2022-11-14T21:22:15.533Z,4.84
2022-11-14T21:25:01.922Z,4.70
2022-11-14T21:27:47.901Z,4.74
2022-11-14T21:30:34.689Z,4.68
2022-11-14T21:33:20.674Z,4.66
2022-11-14T21:36:30.204Z,4.61
2022-11-14T21:39:17.426Z,4.85
2022-11-14T21:42:03.943Z,4.92
2022-11-14T21:44:49.769Z,4.98
2022-11-14T21:47:35.585Z,4.95
2022-11-14T21:50:21.529Z,4.94
2022-11-14T21:53:15.868Z,4.95
2022-11-14T21:56:14.522Z,4.88
2022-11-14T21:59:14.868Z,4.69
2022-11-14T22:02:19.699Z,4.72
2022-11-14T22:05:06.511Z,4.59
2022-11-14T22:07:52.253Z,4.60
2022-11-14T22:10:37.783Z,4.55
2022-11-14T22:13:23.538Z,4.58
2022-11-14T22:16:11.222Z,4.78
2022-11-14T22:19:04.549Z,4.71
2022-11-14T22:21:51.169Z,4.83
2022-11-14T22:24:37.036Z,4.42
2022-11-14T22:27:22.610Z,4.51
2022-11-14T22:30:09.357Z,4.68
2022-11-14T22:32:55.257Z,4.68
2022-11-14T22:35:41.294Z,4.77
2022-11-14T22:38:29.830Z,4.61
2022-11-14T22:41:32.836Z,4.49
2022-11-14T22:44:19.233Z,4.43
2022-11-14T22:47:05.513Z,4.57
2022-11-14T22:49:52.201Z,4.40
2022-11-14T22:52:38.187Z,4.38
2022-11-14T22:55:24.002Z,4.28
2022-11-14T22:58:09.767Z,4.43
2022-11-14T23:00:55.421Z,4.36
2022-11-14T23:03:41.479Z,4.38
2022-11-14T23:06:28.273Z,4.27
2022-11-14T23:09:14.350Z,4.39
2022-11-14T23:12:00.546Z,4.41
2022-11-14T23:14:46.542Z,4.16
2022-11-14T23:17:32.630Z,4.11
2022-11-14T23:20:19.100Z,4.01
2022-11-14T23:23:05.137Z,4.19
2022-11-14T23:25:51.399Z,4.28
2022-11-14T23:28:37.664Z,4.09
2022-11-14T23:31:24.242Z,4.30
2022-11-14T23:34:10.207Z,4.22
2022-11-14T23:37:00.839Z,4.21
2022-11-14T23:39:46.933Z,4.37
2022-11-14T23:42:32.871Z,4.45
2022-11-14T23:45:18.753Z,4.54
2022-11-14T23:48:04.780Z,4.47
2022-11-14T23:50:52.407Z,4.51
2022-11-14T23:53:38.271Z,4.57
2022-11-14T23:56:23.921Z,4.56
2022-11-14T23:59:09.851Z,4.53
